Flight NumberQSM1509 Date22.01.2021
Departure AirportLTFM Arrival AirportOIIE
Departure Time14.41Arrival Time21.26
Pilot In CommandAli Khoshnoodi Block Time3.20 Hours
Pilot Rating100 % AircraftEP-QIJ [ 737-900ER ]


Distance1,110.00 Nm. Passengers176
Fuel Used8,140 Kg. Cargo153 Kg
Expense Details Income Details
Fuel Cost13,660 v$Ticket Sales66,704 v$
Pilot Salary15,021 v$ Cargo income338.00 v$
Crew Salary880 v$ Bonus17,882 v$
Gross Profit92,273 v$ ( 2,306,825 v$ )

Client Versionv2.4.0.3 Max Simrate1
Flight Critique Pilot CommentsOIIE 221900Z 32004KT CAVOK M04/M10 Q1032 ILS29R